createdAt,value
2019-04-05T00:04:26.534Z,62.70
2019-04-05T00:09:27.920Z,61.51
2019-04-05T00:14:29.285Z,61.51
2019-04-05T00:19:30.721Z,61.74
2019-04-05T00:24:32.191Z,61.34
2019-04-05T00:29:34.322Z,60.56
2019-04-05T00:34:35.723Z,62.24
2019-04-05T00:39:37.181Z,60.79
2019-04-05T00:44:38.593Z,60.00
2019-04-05T00:49:40.063Z,61.55
2019-04-05T00:54:41.490Z,60.79
2019-04-05T00:59:42.955Z,61.19
2019-04-05T01:04:51.676Z,60.67
2019-04-05T01:09:53.085Z,60.37
2019-04-05T01:14:54.513Z,60.70
2019-04-05T01:19:55.868Z,61.29
2019-04-05T01:24:57.260Z,60.24
2019-04-05T01:29:58.700Z,60.60
2019-04-05T01:35:00.089Z,59.09
2019-04-05T01:40:01.503Z,60.48
2019-04-05T01:45:05.371Z,60.24
2019-04-05T01:50:06.788Z,59.63
2019-04-05T01:55:09.005Z,60.03
2019-04-05T02:00:10.433Z,59.66
2019-04-05T02:05:11.877Z,59.67
2019-04-05T02:10:14.433Z,60.09
2019-04-05T02:15:30.751Z,58.65
2019-04-05T02:20:32.161Z,59.25
2019-04-05T02:25:40.850Z,59.68
2019-04-05T02:30:42.213Z,58.80
2019-04-05T02:35:43.702Z,60.22
2019-04-05T02:40:45.157Z,58.78
2019-04-05T02:45:46.588Z,58.36
2019-04-05T02:50:49.866Z,59.04
2019-04-05T02:56:02.567Z,58.70
2019-04-05T03:01:00.432Z,58.58
2019-04-05T03:06:02.216Z,58.80
2019-04-05T03:11:03.822Z,57.84
2019-04-05T03:16:05.395Z,60.05
2019-04-05T03:21:08.210Z,58.81
2019-04-05T03:26:10.266Z,58.87
2019-04-05T03:31:11.754Z,59.64
2019-04-05T03:36:13.222Z,59.42
2019-04-05T03:41:14.622Z,58.98
2019-04-05T03:46:16.059Z,58.89
2019-04-05T03:51:17.563Z,59.04
2019-04-05T03:56:19.007Z,60.08
2019-04-05T04:01:20.483Z,59.36
2019-04-05T04:06:21.901Z,59.70
2019-04-05T04:11:23.361Z,58.68
2019-04-05T04:16:24.779Z,58.58
2019-04-05T04:21:30.888Z,58.98
2019-04-05T04:26:32.316Z,59.29
2019-04-05T04:31:34.621Z,59.53
2019-04-05T04:36:36.101Z,59.23
2019-04-05T04:41:37.604Z,59.15
2019-04-05T04:46:39.732Z,58.88
2019-04-05T04:51:41.259Z,60.32
2019-04-05T04:56:42.771Z,59.97
2019-04-05T05:01:44.156Z,59.04
2019-04-05T05:06:45.722Z,59.11
2019-04-05T05:11:47.268Z,58.88
2019-04-05T05:16:48.742Z,59.32
2019-04-05T05:21:50.173Z,60.23
2019-04-05T05:26:52.371Z,60.78
2019-04-05T05:31:54.584Z,60.88
2019-04-05T05:36:56.025Z,60.85
2019-04-05T05:41:58.185Z,60.34
2019-04-05T05:46:59.681Z,60.07
2019-04-05T05:52:01.907Z,59.27
2019-04-05T05:57:03.282Z,59.60
2019-04-05T06:02:07.160Z,59.68
2019-04-05T06:07:06.362Z,60.31
2019-04-05T06:12:07.801Z,60.19
2019-04-05T06:17:09.155Z,61.64
2019-04-05T06:22:10.786Z,60.78
2019-04-05T06:27:13.337Z,61.05
2019-04-05T06:32:16.492Z,61.24
2019-04-05T06:37:18.885Z,62.33
2019-04-05T06:42:20.263Z,62.84
2019-04-05T06:47:21.665Z,62.85
2019-04-05T06:52:23.799Z,64.61
2019-04-05T06:57:25.216Z,63.20
2019-04-05T07:02:27.389Z,63.48
2019-04-05T07:07:29.537Z,63.18
2019-04-05T07:12:30.932Z,62.60
2019-04-05T07:17:32.286Z,63.12
2019-04-05T07:22:39.146Z,63.78
2019-04-05T07:27:35.902Z,63.18
2019-04-05T07:32:37.339Z,63.61
2019-04-05T07:37:39.509Z,62.37
2019-04-05T07:42:41.634Z,63.07
2019-04-05T07:47:43.001Z,63.96
2019-04-05T07:52:44.383Z,63.00
2019-04-05T07:57:45.866Z,63.65
2019-04-05T08:02:47.317Z,62.55
2019-04-05T08:07:48.771Z,62.73
2019-04-05T08:12:50.152Z,61.60
2019-04-05T08:17:51.548Z,62.20
2019-04-05T08:22:52.931Z,60.89
2019-04-05T08:27:54.353Z,61.19
2019-04-05T08:32:55.720Z,60.06
2019-04-05T08:37:57.082Z,59.88
2019-04-05T08:42:58.468Z,58.93
2019-04-05T08:47:59.864Z,58.36
2019-04-05T08:53:01.288Z,58.57
2019-04-05T08:58:06.836Z,57.25
2019-04-05T09:03:11.913Z,56.67
2019-04-05T09:08:12.307Z,55.28
2019-04-05T09:13:13.637Z,55.68
2019-04-05T09:18:15.029Z,56.72
2019-04-05T09:23:16.410Z,57.34
2019-04-05T09:28:17.824Z,55.92
2019-04-05T09:33:19.918Z,55.88
2019-04-05T09:38:21.355Z,54.29
2019-04-05T09:43:22.735Z,54.28
2019-04-05T09:48:24.191Z,55.02
2019-04-05T09:53:26.302Z,54.98
2019-04-05T09:58:27.715Z,54.77
2019-04-05T10:03:29.108Z,54.39
2019-04-05T10:08:31.235Z,53.25
2019-04-05T10:13:32.653Z,51.96
2019-04-05T10:18:33.953Z,51.30
2019-04-05T10:23:35.350Z,50.77
2019-04-05T10:28:36.787Z,51.01
2019-04-05T10:33:38.173Z,50.70
2019-04-05T10:38:39.605Z,51.38
2019-04-05T10:43:40.917Z,50.27
2019-04-05T10:48:42.372Z,52.42
2019-04-05T10:53:43.764Z,51.97
2019-04-05T10:58:45.154Z,52.83
2019-04-05T11:03:47.277Z,51.20
2019-04-05T11:08:48.671Z,50.38
2019-04-05T11:13:50.086Z,50.86
2019-04-05T11:18:51.521Z,50.28
2019-04-05T11:23:55.652Z,50.24
2019-04-05T11:28:55.098Z,50.52
2019-04-05T11:33:56.484Z,50.19
2019-04-05T11:38:57.889Z,50.10
2019-04-05T11:44:00.722Z,50.04
2019-04-05T11:49:03.245Z,51.18
2019-04-05T11:54:02.176Z,50.60
2019-04-05T11:59:03.574Z,50.63
2019-04-05T12:04:05.024Z,49.77
2019-04-05T12:09:06.429Z,49.23
2019-04-05T12:14:07.824Z,49.36
2019-04-05T12:19:09.185Z,49.38
2019-04-05T12:24:10.657Z,49.09
2019-04-05T12:29:12.012Z,49.02
2019-04-05T12:34:14.177Z,49.00
2019-04-05T12:39:15.574Z,49.21
2019-04-05T12:44:16.960Z,49.06
2019-04-05T12:49:18.359Z,48.59
2019-04-05T12:54:19.724Z,48.67
2019-04-05T12:59:21.104Z,48.29
2019-04-05T13:04:22.417Z,47.76
2019-04-05T13:09:24.690Z,46.07
2019-04-05T13:14:26.599Z,45.59
2019-04-05T13:19:28.482Z,44.39
2019-04-05T13:24:28.032Z,45.51
2019-04-05T13:29:29.401Z,45.80
2019-04-05T13:34:30.773Z,45.01
2019-04-05T13:39:32.287Z,44.92
2019-04-05T13:44:33.635Z,45.01
2019-04-05T13:49:35.012Z,44.29
2019-04-05T13:54:36.403Z,45.84
2019-04-05T13:59:37.752Z,46.96
2019-04-05T14:04:39.114Z,46.96
2019-04-05T14:09:40.728Z,46.41
2019-04-05T14:14:42.175Z,46.86
2019-04-05T14:19:43.338Z,47.06
2019-04-05T14:24:44.783Z,46.71
2019-04-05T14:29:47.620Z,46.82
2019-04-05T14:34:47.554Z,46.53
2019-04-05T14:39:48.981Z,45.75
2019-04-05T14:44:50.291Z,45.72
2019-04-05T14:49:51.611Z,45.72
2019-04-05T14:54:52.920Z,45.19
2019-04-05T14:59:54.250Z,45.02
2019-04-05T15:04:55.593Z,45.06
2019-04-05T15:09:56.987Z,45.01
2019-04-05T15:14:58.374Z,45.75
2019-04-05T15:19:59.783Z,45.44
2019-04-05T15:25:01.182Z,45.49
2019-04-05T15:30:02.534Z,45.87
2019-04-05T15:35:04.736Z,45.09
2019-04-05T15:40:06.148Z,45.15
2019-04-05T15:45:08.267Z,45.45
2019-04-05T15:50:09.652Z,45.29
2019-04-05T15:55:11.042Z,45.51
2019-04-05T16:00:13.361Z,45.73
2019-04-05T16:05:14.929Z,45.97
2019-04-05T16:10:17.200Z,46.86
2019-04-05T16:15:20.550Z,46.99
2019-04-05T16:20:22.086Z,46.58
2019-04-05T16:25:24.340Z,46.88
2019-04-05T16:30:25.827Z,46.47
2019-04-05T16:35:28.042Z,46.44
2019-04-05T16:40:31.338Z,46.72
2019-04-05T16:45:30.916Z,46.35
2019-04-05T16:50:32.320Z,46.77
2019-04-05T16:55:33.814Z,47.66
2019-04-05T17:00:35.186Z,47.99
2019-04-05T17:05:37.546Z,48.42
2019-04-05T17:10:50.360Z,48.25
2019-04-05T17:16:02.690Z,48.13
2019-04-05T17:21:14.378Z,48.82
2019-04-05T17:26:15.767Z,48.55
2019-04-05T17:31:17.132Z,48.38
2019-04-05T17:36:18.521Z,48.97
2019-04-05T17:41:25.381Z,49.42
2019-04-05T17:46:29.310Z,49.27
2019-04-05T17:51:32.481Z,49.45
2019-04-05T17:56:33.835Z,49.80
2019-04-05T18:01:35.213Z,49.60
2019-04-05T18:06:36.602Z,49.70
2019-04-05T18:11:38.000Z,50.02
2019-04-05T18:16:39.337Z,50.92
2019-04-05T18:21:41.489Z,51.55
2019-04-05T18:26:42.933Z,52.24
2019-04-05T18:31:44.374Z,51.84
2019-04-05T18:36:45.788Z,53.25
2019-04-05T18:41:47.200Z,53.07
2019-04-05T18:46:52.623Z,53.42
2019-04-05T18:51:55.056Z,53.44
2019-04-05T18:56:57.421Z,53.86
2019-04-05T19:02:01.005Z,53.52
2019-04-05T19:07:04.898Z,54.19
2019-04-05T19:12:07.329Z,54.02
2019-04-05T19:17:23.158Z,54.30
2019-04-05T19:22:19.794Z,55.65
2019-04-05T19:27:42.346Z,55.40
2019-04-05T19:53:11.771Z,54.31
2019-04-05T19:58:17.000Z,54.60
2019-04-05T20:03:19.910Z,54.48
2019-04-05T20:08:22.930Z,54.66
2019-04-05T20:13:25.821Z,54.49
2019-04-05T20:18:27.274Z,55.83
2019-04-05T20:23:30.568Z,54.87
2019-04-05T20:28:33.303Z,55.03
2019-04-05T20:33:38.107Z,54.87
2019-04-05T20:38:42.029Z,55.44
2019-04-05T20:43:46.360Z,55.30
2019-04-05T20:48:51.768Z,55.33
2019-04-05T20:53:56.457Z,55.21
2019-04-05T20:58:58.549Z,55.15
2019-04-05T21:04:01.892Z,55.39
2019-04-05T21:09:04.540Z,55.47
2019-04-05T21:14:10.998Z,55.12
2019-04-05T21:19:14.033Z,55.71
2019-04-05T21:24:35.721Z,55.57
2019-04-05T21:29:27.473Z,55.57
2019-04-05T21:34:28.799Z,55.54
2019-04-05T21:39:30.162Z,55.35
2019-04-05T21:44:31.546Z,55.38
2019-04-05T21:49:32.911Z,55.78
2019-04-05T21:54:34.233Z,55.87
2019-04-05T21:59:35.604Z,55.98
2019-04-05T22:04:37.057Z,55.72
2019-04-05T22:09:39.186Z,55.33
2019-04-05T22:14:40.607Z,55.29
2019-04-05T22:19:42.777Z,55.04
2019-04-05T22:24:44.180Z,55.26
2019-04-05T22:29:45.547Z,55.74
2019-04-05T22:34:46.930Z,55.67
2019-04-05T22:39:48.301Z,55.72
2019-04-05T22:44:49.701Z,55.89
2019-04-05T22:49:51.105Z,55.72
2019-04-05T22:54:52.432Z,55.47
2019-04-05T22:59:53.822Z,55.18
2019-04-05T23:04:55.124Z,55.26
2019-04-05T23:09:56.465Z,55.40
2019-04-05T23:14:57.831Z,55.35
2019-04-05T23:19:59.166Z,55.26
2019-04-05T23:25:02.357Z,55.41
2019-04-05T23:30:04.716Z,55.56
2019-04-05T23:35:07.229Z,55.67
2019-04-05T23:40:08.645Z,55.67
2019-04-05T23:45:10.089Z,55.71
2019-04-05T23:50:12.255Z,55.76
2019-04-05T23:55:13.635Z,55.65
